Decoded Metar for KALI (ALICE in TX, USA) (IATA:ALI) | Meteo·Mobile Aviation Weather
aviador You're here:

KALI Decoded Metar

ALICE in TX, USA
Report Time2018-11-12 21:53:00
UTC Time2018-11-12 22:37:13
Flight Rules mvfr MVFR
Wind010° at 14 Gusting to 25 kt
W.Decomp.*RWY 35: 13.6 kt HW 3.4 kt RCW
RWY 31: 8.2 kt HW 11.3 kt RCW
W.Rank010° ranks 9
Current wind is above 010° avg. (7.8)
Visibility9999 m
Phenomena:N/A
Clouds:Broken 021 Hf
Overcast 027 Hf
Expected CloudBase > 1,600 ft AGL from Temp-Dew spread
Ceiling2,100 ft
Temp13°C (ISA -2)
Dew Point09°C (77% RH)
AAT7.8°C
QNH1019 hPa
Density Alt-69 ft
Elevation174 ft
Report Wrong Elevation
Raw Report
KALI 122153Z AUTO 01014G25KT 10SM BKN021 OVC027 13/09 A3010 RMK
AO2 PK WND 35029/2110 SLP192 T01280089=

Extra information for KALI:More info

Metar Taf Metar & Taf Last 4 Metars F.Rules Stats Wind Profile Meteogram Temp Stats Airport Information Weather charts Add Link Nearby VenuesMetar ALERT Operation Metar Decoded Social comments

AIRNAV info for KALI